createdAt,value
2023-05-01T00:00:14.082Z,2.1
2023-05-01T00:03:12.566Z,2.1
2023-05-01T00:06:11.949Z,2.1
2023-05-01T00:09:11.589Z,2.1
2023-05-01T00:12:11.612Z,2.1
2023-05-01T00:15:11.640Z,2.1
2023-05-01T00:18:12.108Z,2
2023-05-01T00:21:11.577Z,2
2023-05-01T00:24:11.639Z,2
2023-05-01T00:27:11.587Z,1.9
2023-05-01T00:30:11.615Z,1.9
2023-05-01T00:33:12.059Z,1.9
2023-05-01T00:36:11.629Z,1.9
2023-05-01T00:39:11.634Z,1.9
2023-05-01T00:42:11.586Z,1.8
2023-05-01T00:45:11.581Z,1.8
2023-05-01T00:48:12.326Z,1.8
2023-05-01T00:51:11.648Z,1.6
2023-05-01T00:54:11.677Z,1.6
2023-05-01T00:57:11.601Z,1.5
2023-05-01T01:00:12.478Z,1.5
2023-05-01T01:03:11.954Z,1.5
2023-05-01T01:06:11.958Z,1.5
2023-05-01T01:09:11.539Z,1.5
2023-05-01T01:12:11.537Z,1.5
2023-05-01T01:15:11.643Z,1.6
2023-05-01T01:18:12.198Z,1.6
2023-05-01T01:21:11.594Z,1.6
2023-05-01T01:24:11.561Z,1.8
2023-05-01T01:27:11.569Z,1.8
2023-05-01T01:30:11.646Z,1.8
2023-05-01T01:33:12.037Z,1.8
2023-05-01T01:36:11.597Z,1.6
2023-05-01T01:39:11.496Z,1.6
2023-05-01T01:42:11.688Z,1.5
2023-05-01T01:45:11.645Z,1.5
2023-05-01T01:48:12.022Z,1.4
2023-05-01T01:51:11.613Z,1.4
2023-05-01T01:54:11.561Z,1.3
2023-05-01T01:57:11.572Z,1.3
2023-05-01T02:00:11.668Z,1.3
2023-05-01T02:03:12.436Z,1.1
2023-05-01T02:06:12.175Z,1.1
2023-05-01T02:09:11.635Z,1.1
2023-05-01T02:12:11.572Z,1
2023-05-01T02:15:11.831Z,1
2023-05-01T02:18:11.981Z,1
2023-05-01T02:21:11.755Z,0.9
2023-05-01T02:24:11.600Z,0.9
2023-05-01T02:27:11.620Z,0.9
2023-05-01T02:30:11.833Z,0.9
2023-05-01T02:33:12.167Z,0.9
2023-05-01T02:36:11.748Z,0.9
2023-05-01T02:39:11.608Z,0.9
2023-05-01T02:42:11.585Z,0.8
2023-05-01T02:45:11.610Z,0.8
2023-05-01T02:48:12.062Z,0.8
2023-05-01T02:51:11.602Z,0.8
2023-05-01T02:54:11.518Z,0.8
2023-05-01T02:57:11.689Z,0.8
2023-05-01T03:00:11.645Z,0.8
2023-05-01T03:03:12.525Z,0.8
2023-05-01T03:06:11.916Z,0.8
2023-05-01T03:09:11.566Z,0.8
2023-05-01T03:12:11.554Z,0.8
2023-05-01T03:15:11.552Z,0.8
2023-05-01T03:18:12.227Z,0.8
2023-05-01T03:21:11.583Z,0.9
2023-05-01T03:24:11.604Z,0.9
2023-05-01T03:27:11.542Z,0.9
2023-05-01T03:30:11.600Z,0.9
2023-05-01T03:33:11.940Z,1
2023-05-01T03:36:11.699Z,1
2023-05-01T03:39:11.625Z,1
2023-05-01T03:42:11.730Z,1
2023-05-01T03:45:11.682Z,1.1
2023-05-01T03:48:12.030Z,1.3
2023-05-01T03:51:11.665Z,1.4
2023-05-01T03:54:11.641Z,1.5
2023-05-01T03:57:11.692Z,1.6
2023-05-01T04:00:11.801Z,1.9
2023-05-01T04:03:12.953Z,2
2023-05-01T04:06:11.995Z,2.1
2023-05-01T04:09:11.686Z,2.4
2023-05-01T04:12:11.725Z,2.5
2023-05-01T04:15:12.373Z,2.7
2023-05-01T04:18:12.099Z,3
2023-05-01T04:21:11.593Z,3.2
2023-05-01T04:24:11.645Z,3.5
2023-05-01T04:27:11.617Z,3.7
2023-05-01T04:30:11.982Z,4
2023-05-01T04:33:12.002Z,4.2
2023-05-01T04:36:11.701Z,4.5
2023-05-01T04:39:12.289Z,4.7
2023-05-01T04:42:11.587Z,5
2023-05-01T04:45:11.854Z,5.5
2023-05-01T04:48:12.048Z,6.2
2023-05-01T04:51:11.734Z,6.5
2023-05-01T04:54:11.606Z,6.7
2023-05-01T04:57:11.684Z,6.9
2023-05-01T05:00:11.679Z,7
2023-05-01T05:03:12.847Z,7.2
2023-05-01T05:06:12.032Z,8.1
2023-05-01T05:09:11.694Z,8.5
2023-05-01T05:12:11.669Z,8.6
2023-05-01T05:15:11.665Z,8.6
2023-05-01T05:18:12.267Z,8.9
2023-05-01T05:21:11.660Z,9.4
2023-05-01T05:24:11.672Z,9.8
2023-05-01T05:27:11.580Z,10.1
2023-05-01T05:30:12.138Z,10.6
2023-05-01T05:33:12.362Z,11.5
2023-05-01T05:36:11.696Z,12.2
2023-05-01T05:39:11.752Z,13.1
2023-05-01T05:42:11.745Z,13.4
2023-05-01T05:45:11.677Z,12.9
2023-05-01T05:48:12.232Z,13
2023-05-01T05:51:11.684Z,13.3
2023-05-01T05:54:11.630Z,14.6
2023-05-01T05:57:11.706Z,16.8
2023-05-01T06:00:11.897Z,18.3
2023-05-01T06:03:12.475Z,20.3
2023-05-01T06:06:13.104Z,22.1
2023-05-01T06:09:12.086Z,24.3
2023-05-01T06:12:11.728Z,24.5
2023-05-01T06:15:11.744Z,25.3
2023-05-01T06:18:12.650Z,25.8
2023-05-01T06:21:11.618Z,27.2
2023-05-01T06:24:11.666Z,27.9
2023-05-01T06:27:12.600Z,28.9
2023-05-01T06:30:11.690Z,29.6
2023-05-01T06:33:12.238Z,30.3
2023-05-01T06:36:11.684Z,30.6
2023-05-01T06:39:11.654Z,30.6
2023-05-01T06:42:11.624Z,29.8
2023-05-01T06:45:11.686Z,29.6
2023-05-01T06:48:12.146Z,30.6
2023-05-01T06:51:11.640Z,30.9
2023-05-01T06:54:11.758Z,30.1
2023-05-01T06:57:11.617Z,29.5
2023-05-01T07:00:11.930Z,30.9
2023-05-01T07:03:11.946Z,30.8
2023-05-01T07:06:11.982Z,31
2023-05-01T07:09:11.724Z,30.8
2023-05-01T07:12:11.662Z,31.1
2023-05-01T07:15:11.660Z,31.5
2023-05-01T07:18:12.446Z,31.8
2023-05-01T07:21:11.560Z,31.9
2023-05-01T07:24:11.653Z,31.6
2023-05-01T07:27:11.576Z,31.4
2023-05-01T07:30:11.675Z,30.6
2023-05-01T07:33:12.156Z,30.3
2023-05-01T07:36:11.630Z,30.1
2023-05-01T07:39:11.767Z,29.1
2023-05-01T07:42:11.659Z,28.5
2023-05-01T07:45:11.897Z,28.5
2023-05-01T07:48:12.134Z,30.3
2023-05-01T07:51:11.620Z,32.4
2023-05-01T07:54:11.690Z,34.2
2023-05-01T07:57:11.639Z,34.2
2023-05-01T08:00:11.782Z,34.1
2023-05-01T08:03:12.780Z,34
2023-05-01T08:06:12.262Z,33.4
2023-05-01T08:09:11.708Z,33.2
2023-05-01T08:12:11.663Z,33.2
2023-05-01T08:15:11.678Z,33.1
2023-05-01T08:18:12.081Z,33.4
2023-05-01T08:21:11.673Z,33
2023-05-01T08:24:11.715Z,32.4
2023-05-01T08:27:11.616Z,32.4
2023-05-01T08:30:11.670Z,32.9
2023-05-01T08:33:12.007Z,33.5
2023-05-01T08:36:11.917Z,32.9
2023-05-01T08:39:11.636Z,32.9
2023-05-01T08:42:11.631Z,33.1
2023-05-01T08:45:11.749Z,32.9
2023-05-01T08:48:12.006Z,33.7
2023-05-01T08:51:11.711Z,34
2023-05-01T08:54:11.632Z,34.6
2023-05-01T08:57:14.565Z,35.2
2023-05-01T09:00:11.714Z,35.6
2023-05-01T09:03:12.944Z,36.4
2023-05-01T09:06:11.902Z,37.1
2023-05-01T09:09:11.614Z,37.4
2023-05-01T09:12:11.611Z,37.4
2023-05-01T09:15:11.676Z,37
2023-05-01T09:18:15.291Z,36.5
2023-05-01T09:21:11.657Z,36.5
2023-05-01T09:24:11.671Z,37.4
2023-05-01T09:27:11.586Z,38.2
2023-05-01T09:30:11.662Z,38.5
2023-05-01T09:33:12.357Z,38.4
2023-05-01T09:36:11.603Z,38.2
2023-05-01T09:39:11.743Z,38.5
2023-05-01T09:42:11.587Z,38.6
2023-05-01T09:45:11.643Z,39.2
2023-05-01T09:48:12.054Z,40.2
2023-05-01T09:51:11.655Z,41.5
2023-05-01T09:54:11.769Z,42
2023-05-01T09:57:11.608Z,42.7
2023-05-01T10:00:11.718Z,43.1
2023-05-01T10:03:13.731Z,43.1
2023-05-01T10:06:11.950Z,43.5
2023-05-01T10:09:11.705Z,43.1
2023-05-01T10:12:11.692Z,43.6
2023-05-01T10:15:35.798Z,44.5
2023-05-01T10:18:12.064Z,45.5
2023-05-01T10:21:11.665Z,46.4
2023-05-01T10:24:11.533Z,45.2
2023-05-01T10:27:11.640Z,43.7
2023-05-01T10:30:11.660Z,45.4
2023-05-01T10:33:12.206Z,45.9
2023-05-01T10:36:11.644Z,43.6
2023-05-01T10:39:11.604Z,42.2
2023-05-01T10:42:11.789Z,44.2
2023-05-01T10:45:11.669Z,45.9
2023-05-01T10:48:12.162Z,45.8
2023-05-01T10:51:11.660Z,46.1
2023-05-01T10:54:11.663Z,46.6
2023-05-01T10:57:11.641Z,47.5
2023-05-01T11:00:12.010Z,47.9
2023-05-01T11:03:12.120Z,48.5
2023-05-01T11:06:13.266Z,48.9
2023-05-01T11:09:11.726Z,49.1
2023-05-01T11:12:11.688Z,49.4
2023-05-01T11:15:11.599Z,49.7
2023-05-01T11:18:12.187Z,50
2023-05-01T11:21:11.586Z,50.1
2023-05-01T11:24:11.802Z,50.2
2023-05-01T11:27:11.628Z,49.6
2023-05-01T11:30:11.714Z,48.1
2023-05-01T11:33:15.215Z,47.4
2023-05-01T11:36:11.693Z,48.4
2023-05-01T11:39:11.595Z,48.5
2023-05-01T11:42:12.152Z,47
2023-05-01T11:45:11.811Z,46.2
2023-05-01T11:48:16.434Z,45.9
2023-05-01T11:51:11.643Z,46.2
2023-05-01T11:54:13.092Z,46.9
2023-05-01T11:57:11.541Z,47.4
2023-05-01T12:00:11.839Z,47.7
2023-05-01T12:03:14.111Z,47.9
2023-05-01T12:06:12.084Z,48.4
2023-05-01T12:09:11.643Z,48.5
2023-05-01T12:12:11.579Z,47.9
2023-05-01T12:15:11.951Z,47.6
2023-05-01T12:18:12.116Z,46.5
2023-05-01T12:21:11.668Z,45.4
2023-05-01T12:24:11.627Z,45.4
2023-05-01T12:27:11.700Z,45.4
2023-05-01T12:30:11.802Z,46
2023-05-01T12:33:12.142Z,47.4
2023-05-01T12:36:11.668Z,47.5
2023-05-01T12:39:11.716Z,46.9
2023-05-01T12:42:11.671Z,47.1
2023-05-01T12:45:12.106Z,45.6
2023-05-01T12:48:11.941Z,44
2023-05-01T12:51:11.731Z,42.9
2023-05-01T12:54:11.680Z,42.6
2023-05-01T12:57:11.642Z,41.7
2023-05-01T13:00:12.193Z,40.5
2023-05-01T13:03:12.339Z,40.1
2023-05-01T13:06:12.332Z,40.1
2023-05-01T13:09:11.621Z,40
2023-05-01T13:12:11.664Z,39.7
2023-05-01T13:15:11.696Z,40.2
2023-05-01T13:18:12.172Z,40
2023-05-01T13:21:11.967Z,39.5
2023-05-01T13:24:11.764Z,39
2023-05-01T13:27:15.767Z,39.2
2023-05-01T13:30:12.652Z,38.4
2023-05-01T13:33:12.338Z,38.7
2023-05-01T13:36:33.939Z,40.2
2023-05-01T13:39:11.701Z,41.9
2023-05-01T13:42:11.803Z,43.5
2023-05-01T13:45:11.836Z,44.7
2023-05-01T13:48:12.149Z,43.6
2023-05-01T13:51:11.718Z,41.5
2023-05-01T13:54:11.713Z,39.2
2023-05-01T13:57:11.658Z,37.9
2023-05-01T14:00:11.811Z,37
2023-05-01T14:03:12.413Z,36.1
2023-05-01T14:06:12.137Z,35.5
2023-05-01T14:09:11.683Z,36.9
2023-05-01T14:12:11.747Z,39.9
2023-05-01T14:15:13.193Z,39.4
2023-05-01T14:18:12.276Z,38.7
2023-05-01T14:21:11.721Z,39.5
2023-05-01T14:24:11.674Z,40.2
2023-05-01T14:27:11.788Z,39.7
2023-05-01T14:30:11.867Z,39.9
2023-05-01T14:33:12.270Z,41.1
2023-05-01T14:36:11.650Z,40.8
2023-05-01T14:39:11.684Z,39.9
2023-05-01T14:42:11.612Z,40.4
2023-05-01T14:45:11.992Z,41.6
2023-05-01T14:48:12.178Z,42.4
2023-05-01T14:51:11.660Z,41.5
2023-05-01T14:54:11.599Z,38.2
2023-05-01T14:57:11.630Z,35.9
2023-05-01T15:00:11.920Z,34.4
2023-05-01T15:03:12.608Z,33.9
2023-05-01T15:06:12.012Z,33.7
2023-05-01T15:09:11.649Z,35.1
2023-05-01T15:12:13.905Z,37.9
2023-05-01T15:15:11.931Z,36.7
2023-05-01T15:18:12.178Z,35.9
2023-05-01T15:21:11.584Z,35
2023-05-01T15:24:11.640Z,34.1
2023-05-01T15:27:11.673Z,34.1
2023-05-01T15:30:11.860Z,34.1
2023-05-01T15:33:12.069Z,33.6
2023-05-01T15:36:11.676Z,35.1
2023-05-01T15:39:11.783Z,34.4
2023-05-01T15:42:11.699Z,33
2023-05-01T15:45:12.063Z,31.8
2023-05-01T15:48:12.443Z,31
2023-05-01T15:51:11.683Z,30.6
2023-05-01T15:54:11.647Z,30.8
2023-05-01T15:57:11.632Z,31.4
2023-05-01T16:00:12.794Z,31.9
2023-05-01T16:03:12.630Z,32
2023-05-01T16:06:12.034Z,32.6
2023-05-01T16:09:11.585Z,31.8
2023-05-01T16:12:12.174Z,30.9
2023-05-01T16:15:11.749Z,30
2023-05-01T16:18:12.023Z,29.3
2023-05-01T16:21:11.625Z,28.5
2023-05-01T16:24:11.661Z,27.6
2023-05-01T16:27:11.609Z,27
2023-05-01T16:30:12.713Z,26.5
2023-05-01T16:33:12.158Z,26.2
2023-05-01T16:36:11.997Z,26.1
2023-05-01T16:39:13.268Z,25.9
2023-05-01T16:42:11.625Z,26
2023-05-01T16:45:13.824Z,26.5
2023-05-01T16:48:12.238Z,27.9
2023-05-01T16:51:11.658Z,28
2023-05-01T16:54:11.574Z,28.6
2023-05-01T16:57:11.686Z,29.6
2023-05-01T17:00:13.010Z,29.8
2023-05-01T17:03:12.239Z,29.6
2023-05-01T17:06:11.901Z,29.9
2023-05-01T17:09:11.673Z,29.4
2023-05-01T17:12:11.662Z,28.4
2023-05-01T17:15:11.698Z,27.6
2023-05-01T17:18:12.076Z,26.8
2023-05-01T17:21:11.743Z,26.1
2023-05-01T17:24:11.715Z,25.9
2023-05-01T17:27:11.614Z,25.8
2023-05-01T17:30:12.799Z,25.6
2023-05-01T17:33:12.546Z,25.5
2023-05-01T17:36:11.826Z,25.4
2023-05-01T17:39:11.614Z,25.1
2023-05-01T17:42:11.718Z,24.7
2023-05-01T17:45:11.766Z,24.4
2023-05-01T17:48:12.329Z,24
2023-05-01T17:51:11.695Z,23.6
2023-05-01T17:54:11.860Z,23.1
2023-05-01T17:57:11.638Z,22.5
2023-05-01T18:00:13.361Z,22
2023-05-01T18:03:12.723Z,21.4
2023-05-01T18:06:12.121Z,20.9
2023-05-01T18:09:11.631Z,20.4
2023-05-01T18:12:11.734Z,19.9
2023-05-01T18:15:11.599Z,19.4
2023-05-01T18:18:12.863Z,18.9
2023-05-01T18:21:11.599Z,18.5
2023-05-01T18:24:11.656Z,18.1
2023-05-01T18:27:11.609Z,17.6
2023-05-01T18:30:12.637Z,17.2
2023-05-01T18:33:11.921Z,17
2023-05-01T18:36:11.640Z,16.6
2023-05-01T18:39:11.642Z,16.4
2023-05-01T18:42:11.640Z,16.1
2023-05-01T18:45:11.747Z,15.9
2023-05-01T18:48:12.393Z,15.5
2023-05-01T18:51:20.462Z,15.3
2023-05-01T18:54:15.605Z,14.9
2023-05-01T18:57:11.650Z,14.4
2023-05-01T19:00:12.721Z,14.1
2023-05-01T19:03:12.151Z,13.8
2023-05-01T19:06:12.814Z,13.5
2023-05-01T19:09:11.587Z,13.3
2023-05-01T19:12:11.538Z,13.1
2023-05-01T19:15:11.754Z,12.9
2023-05-01T19:18:11.973Z,12.6
2023-05-01T19:21:11.684Z,12.4
2023-05-01T19:24:11.690Z,12.2
2023-05-01T19:27:11.594Z,12.1
2023-05-01T19:30:12.839Z,12
2023-05-01T19:33:12.236Z,12
2023-05-01T19:36:11.599Z,11.9
2023-05-01T19:39:11.533Z,11.9
2023-05-01T19:42:11.558Z,11.6
2023-05-01T19:45:11.612Z,11.6
2023-05-01T19:48:12.161Z,11.5
2023-05-01T19:51:11.656Z,11.5
2023-05-01T19:54:11.541Z,11.5
2023-05-01T19:57:11.629Z,11.5
2023-05-01T20:00:12.514Z,11.6
2023-05-01T20:03:12.541Z,11.6
2023-05-01T20:06:12.125Z,11.6
2023-05-01T20:09:11.568Z,11.5
2023-05-01T20:12:11.682Z,11.4
2023-05-01T20:15:11.678Z,11.3
2023-05-01T20:18:12.044Z,11
2023-05-01T20:21:11.592Z,11
2023-05-01T20:24:11.704Z,11
2023-05-01T20:27:11.686Z,11
2023-05-01T20:30:12.339Z,11.1
2023-05-01T20:33:12.015Z,11.3
2023-05-01T20:36:11.718Z,11.3
2023-05-01T20:39:11.622Z,11.3
2023-05-01T20:42:11.704Z,11.4
2023-05-01T20:45:11.768Z,11.6
2023-05-01T20:48:12.019Z,11.6
2023-05-01T20:51:11.585Z,11.8
2023-05-01T20:54:11.599Z,11.6
2023-05-01T20:57:11.686Z,11.5
2023-05-01T21:00:12.846Z,11.5
2023-05-01T21:03:12.602Z,11.3
2023-05-01T21:06:11.911Z,11.1
2023-05-01T21:09:11.590Z,11
2023-05-01T21:12:11.584Z,10.9
2023-05-01T21:15:11.632Z,10.8
2023-05-01T21:18:11.993Z,10.6
2023-05-01T21:21:11.504Z,10.6
2023-05-01T21:24:11.660Z,10.6
2023-05-01T21:27:11.605Z,10.6
2023-05-01T21:30:12.762Z,10.8
2023-05-01T21:33:11.996Z,10.8
2023-05-01T21:36:11.752Z,10.9
2023-05-01T21:39:11.650Z,11.1
2023-05-01T21:42:11.663Z,11.4
2023-05-01T21:45:11.677Z,11.6
2023-05-01T21:48:12.206Z,11.9
2023-05-01T21:51:11.760Z,12.1
2023-05-01T21:54:11.657Z,12.4
2023-05-01T21:57:11.671Z,12.5
2023-05-01T22:00:12.856Z,12.6
2023-05-01T22:03:12.544Z,12.6
2023-05-01T22:06:11.917Z,12.8
2023-05-01T22:09:11.732Z,12.9
2023-05-01T22:12:11.634Z,12.9
2023-05-01T22:15:11.751Z,13
2023-05-01T22:18:12.196Z,13.1
2023-05-01T22:21:11.636Z,13.3
2023-05-01T22:24:11.653Z,13.4
2023-05-01T22:27:11.596Z,13.5
2023-05-01T22:30:12.995Z,13.6
2023-05-01T22:33:12.178Z,13.5
2023-05-01T22:36:14.731Z,13.3
2023-05-01T22:39:11.623Z,13
2023-05-01T22:42:11.750Z,12.8
2023-05-01T22:45:11.649Z,12.6
2023-05-01T22:48:12.372Z,12.5
2023-05-01T22:51:11.709Z,12.5
2023-05-01T22:54:11.663Z,12.5
2023-05-01T22:57:11.727Z,12.5
2023-05-01T23:00:12.866Z,12.5
2023-05-01T23:03:12.397Z,12.5
2023-05-01T23:06:11.992Z,12.5
2023-05-01T23:09:11.672Z,12.5
2023-05-01T23:12:11.730Z,12.6
2023-05-01T23:15:11.828Z,12.6
2023-05-01T23:18:12.094Z,12.6
2023-05-01T23:21:11.695Z,12.6
2023-05-01T23:24:11.984Z,12.6
2023-05-01T23:27:11.621Z,12.6
2023-05-01T23:30:12.931Z,12.6
2023-05-01T23:33:11.941Z,12.5
2023-05-01T23:36:11.804Z,12.2
2023-05-01T23:39:11.711Z,12.1
2023-05-01T23:42:11.635Z,11.9
2023-05-01T23:45:11.808Z,11.6
2023-05-01T23:48:12.178Z,11.5
2023-05-01T23:51:11.628Z,11.3
2023-05-01T23:54:11.646Z,11.1
2023-05-01T23:57:12.017Z,11.1
